Time;durP1;ratioP1;P1;durP2;ratioP2;P2;SDS_P1;SDS_P2;PMS_P1;PMS_P2;Temp;Humidity;BMP_temperature;BMP_pressure;BME280_temperature;BME280_humidity;BME280_pressure;Samples;Min_cycle;Max_cycle;Signal;HPM_P1;HPM_P2
2021/12/12 00:02:18;;;;;;;30.58;14.27;;;5.30;99.90;;;;;;5094115;28;20032;-85
2021/12/12 00:04:47;;;;;;;33.42;15.20;;;5.30;99.90;;;;;;5094201;28;20020;-84
2021/12/12 00:07:20;;;;;;;32.88;14.77;;;5.30;99.90;;;;;;5092769;28;20016;-84
2021/12/12 00:09:50;;;;;;;29.98;14.05;;;5.40;99.90;;;;;;5094087;28;20028;-84
2021/12/12 00:12:27;;;;;;;33.08;15.05;;;5.40;99.90;;;;;;5093228;28;20032;-85
2021/12/12 00:14:54;;;;;;;33.08;14.07;;;5.40;99.90;;;;;;5093823;28;20107;-84
2021/12/12 00:17:21;;;;;;;30.23;13.93;;;5.40;99.90;;;;;;5093554;28;20028;-84
2021/12/12 00:19:47;;;;;;;31.50;13.70;;;5.40;99.90;;;;;;5093611;28;20036;-84
2021/12/12 00:22:20;;;;;;;32.15;14.15;;;5.40;99.90;;;;;;5075486;28;20039;-85
2021/12/12 00:24:46;;;;;;;33.85;14.00;;;5.40;99.90;;;;;;5093494;28;20077;-84
2021/12/12 00:27:12;;;;;;;32.67;12.98;;;5.50;99.90;;;;;;5075294;28;20020;-84
2021/12/12 00:29:38;;;;;;;36.45;14.95;;;5.50;99.90;;;;;;5093289;28;20027;-85
2021/12/12 00:32:10;;;;;;;32.47;14.82;;;5.40;99.90;;;;;;5075147;28;20016;-84
2021/12/12 00:34:40;;;;;;;32.72;13.52;;;5.50;99.90;;;;;;5075455;28;20028;-84
2021/12/12 00:37:08;;;;;;;32.63;14.48;;;5.50;99.90;;;;;;5093800;28;20069;-85
2021/12/12 00:39:37;;;;;;;39.40;14.18;;;5.50;99.90;;;;;;5075314;28;20126;-85
2021/12/12 00:42:07;;;;;;;34.58;15.02;;;5.60;99.90;;;;;;5093436;28;20119;-85
2021/12/12 00:44:33;;;;;;;32.17;14.00;;;5.50;99.90;;;;;;5093527;28;20388;-85
2021/12/12 00:47:03;;;;;;;31.85;13.10;;;5.50;99.90;;;;;;5093390;28;20432;-85
2021/12/12 00:49:31;;;;;;;36.92;14.90;;;5.60;99.90;;;;;;5093408;28;20024;-85
2021/12/12 00:51:57;;;;;;;33.60;13.23;;;5.60;99.90;;;;;;5075168;28;20081;-85
2021/12/12 00:54:30;;;;;;;31.77;13.68;;;5.60;99.90;;;;;;5093372;28;20035;-85
2021/12/12 00:57:00;;;;;;;27.13;13.82;;;5.60;99.90;;;;;;5093683;28;20078;-85
2021/12/12 00:59:27;;;;;;;37.13;13.35;;;5.60;99.90;;;;;;5093458;28;20020;-85
2021/12/12 01:01:53;;;;;;;29.85;13.25;;;5.60;99.90;;;;;;5093225;28;20038;-85
2021/12/12 01:04:21;;;;;;;31.90;13.48;;;5.60;99.90;;;;;;5093258;28;20024;-85
2021/12/12 01:06:49;;;;;;;28.17;12.85;;;5.60;99.90;;;;;;5075182;28;20016;-85
2021/12/12 01:09:21;;;;;;;32.25;12.50;;;5.70;99.90;;;;;;5093099;28;20039;-85
2021/12/12 01:11:51;;;;;;;31.13;12.60;;;5.70;99.90;;;;;;5093175;28;20019;-85
2021/12/12 01:14:22;;;;;;;28.85;13.10;;;5.70;99.90;;;;;;5093329;28;20031;-85
2021/12/12 01:17:05;;;;;;;27.38;11.60;;;5.70;99.90;;;;;;5093200;28;20024;-85
2021/12/12 01:19:42;;;;;;;29.85;11.73;;;5.70;99.90;;;;;;5093109;28;20502;-85
2021/12/12 01:22:17;;;;;;;27.85;12.27;;;5.70;99.90;;;;;;5093275;28;20499;-85
2021/12/12 01:24:47;;;;;;;32.15;13.55;;;5.80;99.90;;;;;;5094654;28;20476;-85
2021/12/12 01:27:13;;;;;;;;;;;5.80;99.90;;;;;;5079184;28;20111;-85
2021/12/12 01:29:40;;;;;;;25.27;12.50;;;5.80;99.90;;;;;;5096896;28;19904;-85
2021/12/12 01:32:12;;;;;;;35.35;12.82;;;5.80;99.90;;;;;;5078625;28;20498;-85
2021/12/12 01:34:38;;;;;;;29.95;12.30;;;5.80;99.90;;;;;;5097273;28;20099;-85
2021/12/12 01:39:52;;;;;;;27.08;11.45;;;5.80;99.90;;;;;;5096145;28;20056;-85
2021/12/12 01:42:23;;;;;;;27.00;11.90;;;5.80;99.90;;;;;;5096516;28;20024;-85
2021/12/12 01:45:07;;;;;;;21.05;10.82;;;5.80;99.90;;;;;;5078663;28;20024;-85
2021/12/12 01:47:38;;;;;;;27.80;11.98;;;5.80;99.90;;;;;;5096535;28;20391;-85
2021/12/12 01:50:11;;;;;;;33.47;13.48;;;5.90;99.90;;;;;;5096658;28;20052;-85
2021/12/12 01:52:37;;;;;;;28.98;12.93;;;5.90;99.90;;;;;;5096373;28;20024;-85
2021/12/12 01:55:39;;;;;;;23.77;10.90;;;5.90;99.90;;;;;;5078188;28;20012;-85
2021/12/12 01:58:11;;;;;;;28.95;13.25;;;5.90;99.90;;;;;;5096434;28;20084;-85
2021/12/12 02:00:52;;;;;;;26.08;10.98;;;5.90;99.90;;;;;;5096432;28;20043;-85
2021/12/12 02:03:21;;;;;;;23.42;10.27;;;5.90;99.90;;;;;;5096244;28;20032;-85
2021/12/12 02:05:48;;;;;;;24.90;11.25;;;5.90;99.90;;;;;;5096177;28;20498;-85
2021/12/12 02:08:17;;;;;;;28.52;11.82;;;6.00;99.90;;;;;;5096145;28;20169;-85
2021/12/12 02:10:58;;;;;;;27.58;11.57;;;5.90;99.90;;;;;;5077996;28;20067;-85
2021/12/12 02:13:26;;;;;;;27.17;11.60;;;6.00;99.90;;;;;;5077902;28;20032;-85
2021/12/12 02:15:55;;;;;;;25.27;10.80;;;6.00;99.90;;;;;;5096099;28;20130;-85
2021/12/12 02:18:28;;;;;;;28.77;11.20;;;6.00;99.90;;;;;;5096059;28;20024;-85
2021/12/12 02:21:09;;;;;;;29.50;12.05;;;6.00;99.90;;;;;;5096379;28;20380;-85
2021/12/12 02:24:22;;;;;;;21.27;10.88;;;6.00;99.90;;;;;;5096509;28;20484;-85
2021/12/12 02:35:13;;;;;;;20.83;10.30;;;6.00;99.90;;;;;;5095293;28;20034;-85
2021/12/12 02:37:41;;;;;;;26.40;10.73;;;6.00;99.90;;;;;;5096254;28;20028;-85
2021/12/12 02:40:18;;;;;;;24.42;10.25;;;6.00;99.90;;;;;;5095300;28;20121;-85
2021/12/12 02:42:44;;;;;;;21.25;10.15;;;6.00;99.90;;;;;;5095810;28;20089;-85
2021/12/12 02:45:12;;;;;;;23.10;10.13;;;6.00;99.90;;;;;;5095912;28;20024;-85
2021/12/12 02:47:38;;;;;;;28.08;11.02;;;6.10;99.90;;;;;;5095500;28;20081;-85
2021/12/12 02:50:24;;;;;;;19.98;10.25;;;6.10;99.90;;;;;;5095715;28;20342;-85
2021/12/12 02:52:54;;;;;;;22.42;9.25;;;6.10;99.90;;;;;;5095567;28;20028;-84
2021/12/12 02:55:27;;;;;;;18.42;9.98;;;6.10;99.90;;;;;;5095282;28;20027;-85
2021/12/12 02:57:55;;;;;;;17.98;9.73;;;6.10;99.90;;;;;;5095175;28;20028;-85
2021/12/12 03:00:25;;;;;;;18.02;9.52;;;6.20;99.90;;;;;;5094993;28;20092;-85
2021/12/12 03:02:57;;;;;;;17.92;9.80;;;6.20;99.90;;;;;;5095216;28;20797;-85
2021/12/12 03:05:25;;;;;;;19.15;9.90;;;6.10;99.90;;;;;;5095467;28;20609;-85
2021/12/12 03:07:52;;;;;;;21.70;10.07;;;6.20;99.90;;;;;;5095269;28;20028;-85
2021/12/12 03:10:23;;;;;;;17.58;9.63;;;6.20;99.90;;;;;;5095438;28;20024;-85
2021/12/12 03:12:49;;;;;;;18.10;9.43;;;6.20;99.90;;;;;;5095132;28;20020;-85
2021/12/12 03:15:23;;;;;;;19.58;9.85;;;6.20;99.90;;;;;;5095132;28;20089;-84
2021/12/12 03:17:52;;;;;;;16.13;10.13;;;6.20;99.90;;;;;;5094986;28;20078;-85
2021/12/12 03:20:31;;;;;;;21.40;10.13;;;6.20;99.90;;;;;;5076879;28;20063;-85
2021/12/12 03:23:06;;;;;;;20.00;10.35;;;6.10;99.90;;;;;;5095475;28;20471;-85
2021/12/12 03:25:35;;;;;;;21.70;10.73;;;6.20;99.90;;;;;;5095028;28;20028;-85
2021/12/12 03:28:02;;;;;;;20.52;10.82;;;6.20;99.90;;;;;;5094578;28;20036;-85
2021/12/12 03:30:29;;;;;;;19.55;10.32;;;6.20;99.90;;;;;;5094576;28;20028;-85
2021/12/12 03:32:55;;;;;;;20.95;10.07;;;6.20;99.90;;;;;;5094659;28;20081;-85
2021/12/12 03:35:20;;;;;;;17.70;10.95;;;6.20;99.90;;;;;;5094655;28;20024;-85
2021/12/12 03:37:46;;;;;;;21.30;10.27;;;6.20;99.90;;;;;;5094841;28;20097;-85
2021/12/12 03:40:21;;;;;;;24.33;11.65;;;6.20;99.90;;;;;;5094123;28;20563;-85
2021/12/12 03:42:50;;;;;;;20.95;10.85;;;6.10;99.90;;;;;;5094585;28;20058;-85
2021/12/12 03:45:18;;;;;;;19.45;11.50;;;6.20;99.90;;;;;;5094225;28;20031;-85
2021/12/12 03:47:51;;;;;;;20.23;10.70;;;6.20;99.90;;;;;;5093557;28;20043;-85
2021/12/12 03:50:21;;;;;;;18.95;9.77;;;6.20;99.90;;;;;;5094418;28;20028;-85
2021/12/12 03:52:47;;;;;;;19.23;10.13;;;6.20;99.90;;;;;;5094183;28;20031;-85
2021/12/12 03:55:15;;;;;;;18.10;9.55;;;6.20;99.90;;;;;;5094292;28;20021;-85
2021/12/12 03:57:41;;;;;;;21.70;9.55;;;6.30;99.90;;;;;;5094094;28;20494;-85
2021/12/12 04:00:13;;;;;;;17.70;9.18;;;6.30;99.90;;;;;;5094141;28;20373;-85
2021/12/12 04:02:39;;;;;;;17.08;9.65;;;6.20;99.90;;;;;;5094074;28;20067;-85
2021/12/12 04:05:05;;;;;;;16.23;9.95;;;6.30;99.90;;;;;;5075685;28;20055;-85
2021/12/12 04:07:32;;;;;;;14.98;8.60;;;6.20;99.90;;;;;;5093970;28;20166;-85
2021/12/12 04:09:59;;;;;;;18.00;10.00;;;6.30;99.90;;;;;;5094104;28;20027;-85
2021/12/12 04:12:25;;;;;;;16.13;8.77;;;6.30;99.90;;;;;;5093932;28;20051;-85
2021/12/12 04:14:52;;;;;;;15.63;9.48;;;6.30;99.90;;;;;;5093815;28;20073;-85
2021/12/12 04:17:30;;;;;;;14.88;8.82;;;6.30;99.90;;;;;;5075782;28;20031;-85
2021/12/12 04:19:59;;;;;;;17.13;9.05;;;6.20;99.90;;;;;;5093807;28;20652;-85
2021/12/12 04:22:25;;;;;;;13.13;8.52;;;6.30;99.90;;;;;;5093814;28;20594;-85
2021/12/12 04:24:54;;;;;;;15.60;9.15;;;6.30;99.90;;;;;;5094147;28;20031;-85
2021/12/12 04:27:22;;;;;;;15.00;8.75;;;6.20;99.90;;;;;;5093679;28;20038;-85
2021/12/12 04:29:50;;;;;;;16.77;8.93;;;6.30;99.90;;;;;;5093665;28;20079;-85
2021/12/12 04:32:19;;;;;;;15.73;8.90;;;6.20;99.90;;;;;;5093578;28;20032;-85
2021/12/12 04:34:49;;;;;;;13.82;9.00;;;6.30;99.90;;;;;;5075686;28;20048;-85
2021/12/12 04:37:16;;;;;;;15.68;9.05;;;6.30;99.90;;;;;;5093640;28;20047;-85
2021/12/12 04:39:48;;;;;;;13.07;8.02;;;6.30;99.90;;;;;;5093246;28;20052;-85
2021/12/12 04:42:36;;;;;;;16.13;9.52;;;6.30;99.90;;;;;;5094086;28;20482;-85
2021/12/12 04:45:20;;;;;;;14.30;8.75;;;6.20;99.90;;;;;;5093669;28;20077;-85
2021/12/12 04:50:58;;;;;;;17.27;9.25;;;6.30;99.90;;;;;;5093483;28;20074;-85
2021/12/12 04:53:42;;;;;;;17.80;10.20;;;6.20;99.90;;;;;;5093504;28;20046;-84
2021/12/12 04:56:35;;;;;;;26.65;9.50;;;6.30;99.90;;;;;;5093493;28;20123;-85
2021/12/12 04:59:14;;;;;;;32.15;10.20;;;6.30;99.90;;;;;;5095280;28;20475;-84
2021/12/12 05:01:48;;;;;;;23.50;10.05;;;6.20;99.90;;;;;;5097487;28;20020;-85
2021/12/12 05:04:29;;;;;;;22.25;10.18;;;6.30;99.90;;;;;;5097461;28;20129;-85
2021/12/12 05:07:01;;;;;;;45.60;11.80;;;6.30;99.90;;;;;;5097524;28;20035;-85
2021/12/12 05:09:26;;;;;;;20.75;10.25;;;6.30;99.90;;;;;;5097446;28;20032;-85
2021/12/12 05:12:04;;;;;;;14.68;9.98;;;6.30;99.90;;;;;;5097568;28;20131;-85
2021/12/12 05:14:40;;;;;;;16.73;9.18;;;6.30;99.90;;;;;;5097407;28;20479;-85
2021/12/12 05:17:19;;;;;;;17.92;10.30;;;6.40;99.90;;;;;;5097069;28;20122;-85
2021/12/12 05:19:55;;;;;;;18.33;10.70;;;6.40;99.90;;;;;;5097179;28;20012;-85
2021/12/12 05:22:29;;;;;;;19.15;9.90;;;6.30;99.90;;;;;;5097041;28;20273;-85
2021/12/12 05:24:59;;;;;;;16.02;9.45;;;6.30;99.90;;;;;;5097029;28;20161;-85
2021/12/12 05:27:27;;;;;;;17.00;9.68;;;6.40;99.90;;;;;;5096976;28;20651;-85
2021/12/12 05:30:03;;;;;;;19.42;10.52;;;6.40;99.90;;;;;;5096954;28;20107;-85
2021/12/12 05:32:30;;;;;;;19.00;10.63;;;6.40;99.90;;;;;;5096904;28;20028;-85
2021/12/12 05:34:57;;;;;;;20.38;10.70;;;6.40;99.90;;;;;;5096830;28;20073;-85
2021/12/12 05:37:23;;;;;;;21.55;11.23;;;6.30;99.90;;;;;;5078859;28;20471;-85
2021/12/12 05:39:51;;;;;;;17.58;9.90;;;6.40;99.90;;;;;;5096713;28;20055;-85
2021/12/12 05:42:22;;;;;;;19.35;10.95;;;6.40;99.90;;;;;;5076647;28;20025;-85
2021/12/12 05:44:48;;;;;;;22.33;11.05;;;6.40;99.90;;;;;;5084068;28;20031;-85
2021/12/12 05:47:14;;;;;;;21.10;11.45;;;6.40;99.90;;;;;;5078762;28;20111;-85
2021/12/12 05:49:41;;;;;;;19.45;10.85;;;6.40;99.90;;;;;;5078407;28;20533;-85
2021/12/12 05:52:14;;;;;;;21.42;11.70;;;6.40;99.90;;;;;;5078264;28;20028;-85
2021/12/12 05:54:41;;;;;;;19.95;11.95;;;6.40;99.90;;;;;;5096449;28;20059;-85
2021/12/12 05:57:09;;;;;;;22.27;11.48;;;6.50;99.90;;;;;;5078296;28;20020;-85
2021/12/12 05:59:36;;;;;;;21.27;11.95;;;6.50;99.90;;;;;;5058342;28;20029;-85
2021/12/12 06:02:05;;;;;;;23.10;12.10;;;6.50;99.90;;;;;;5065181;28;20028;-85
2021/12/12 06:04:31;;;;;;;22.38;12.18;;;6.50;99.90;;;;;;5078330;28;20069;-84
2021/12/12 06:06:57;;;;;;;23.10;12.38;;;6.50;99.90;;;;;;5096375;28;20024;-85
2021/12/12 06:09:23;;;;;;;18.70;11.43;;;6.50;99.90;;;;;;5078185;28;20031;-86
2021/12/12 06:11:51;;;;;;;21.63;11.75;;;6.60;99.90;;;;;;5095257;28;20024;-85
2021/12/12 06:14:18;;;;;;;23.80;12.13;;;6.50;99.90;;;;;;5077900;28;20024;-85
2021/12/12 06:16:45;;;;;;;20.50;11.60;;;6.60;99.90;;;;;;5096217;28;20024;-85
2021/12/12 06:19:14;;;;;;;21.75;12.15;;;6.60;99.90;;;;;;5096144;28;20020;-85
2021/12/12 06:21:41;;;;;;;20.13;10.90;;;6.60;99.90;;;;;;5078020;28;20471;-85
2021/12/12 06:24:07;;;;;;;22.77;12.00;;;6.70;99.90;;;;;;5078149;28;20032;-85
2021/12/12 06:26:34;;;;;;;21.55;12.00;;;6.70;99.90;;;;;;5095904;28;20028;-84
2021/12/12 06:28:59;;;;;;;22.15;11.80;;;6.70;99.90;;;;;;5096082;28;20031;-85
2021/12/12 06:31:26;;;;;;;21.42;11.13;;;6.70;99.90;;;;;;5077571;28;20032;-84
2021/12/12 06:33:51;;;;;;;21.80;12.40;;;6.80;99.90;;;;;;5095832;28;20455;-85
2021/12/12 06:36:17;;;;;;;19.88;10.05;;;6.80;99.90;;;;;;5077736;28;20047;-85
2021/12/12 06:38:47;;;;;;;23.80;11.82;;;6.80;99.90;;;;;;5095750;28;20109;-85
2021/12/12 06:41:14;;;;;;;22.55;10.32;;;6.90;99.90;;;;;;5095901;28;20043;-85
2021/12/12 06:43:41;;;;;;;20.70;10.70;;;6.90;99.90;;;;;;5095778;28;20020;-85
2021/12/12 06:46:08;;;;;;;20.05;10.38;;;6.90;99.90;;;;;;5077470;28;20028;-86
2021/12/12 06:48:35;;;;;;;20.92;11.32;;;7.00;99.90;;;;;;5077150;28;20060;-85
2021/12/12 06:51:02;;;;;;;24.13;11.30;;;7.10;99.90;;;;;;5095189;28;20027;-85
2021/12/12 06:53:30;;;;;;;24.30;10.98;;;7.00;99.90;;;;;;5077379;28;20055;-85
2021/12/12 06:55:56;;;;;;;25.40;11.00;;;7.00;99.90;;;;;;5095358;28;20024;-85
2021/12/12 06:58:25;;;;;;;26.38;11.75;;;7.10;99.90;;;;;;5095314;28;20072;-85
2021/12/12 07:00:57;;;;;;;25.10;10.93;;;7.10;99.90;;;;;;5077197;28;20036;-84
2021/12/12 07:03:23;;;;;;;22.42;11.80;;;7.10;99.90;;;;;;5077012;28;20024;-85
2021/12/12 07:05:50;;;;;;;23.77;11.77;;;7.20;99.90;;;;;;5076771;28;20057;-85
2021/12/12 07:08:20;;;;;;;26.33;11.88;;;7.20;99.90;;;;;;5077169;28;20020;-85
2021/12/12 07:10:46;;;;;;;27.05;11.65;;;7.30;99.90;;;;;;5090906;28;20118;-85
2021/12/12 07:13:13;;;;;;;33.15;13.30;;;7.20;99.90;;;;;;5069020;28;20512;-85
2021/12/12 07:15:49;;;;;;;30.38;11.60;;;7.30;99.90;;;;;;5068368;28;20028;-85
2021/12/12 07:18:19;;;;;;;36.67;12.60;;;7.40;99.90;;;;;;5070453;28;20035;-86
2021/12/12 07:20:47;;;;;;;;;;;7.40;99.90;;;;;;5075457;28;20046;-86
2021/12/12 07:23:13;;;;;;;25.95;11.25;;;7.50;99.90;;;;;;5091572;28;19930;-85
2021/12/12 07:25:42;;;;;;;32.42;12.40;;;7.50;99.90;;;;;;5076676;28;20542;-84
2021/12/12 07:28:10;;;;;;;27.00;11.70;;;7.50;99.90;;;;;;5076213;28;20024;-85
2021/12/12 07:30:36;;;;;;;35.10;13.85;;;7.60;99.90;;;;;;5076208;28;20077;-85
2021/12/12 07:33:04;;;;;;;33.20;12.80;;;7.70;99.90;;;;;;5076464;28;20028;-85
2021/12/12 07:35:33;;;;;;;27.92;11.82;;;7.70;99.90;;;;;;5086156;28;20093;-85
2021/12/12 07:37:59;;;;;;;33.55;12.65;;;7.70;99.90;;;;;;5082347;28;20063;-85
2021/12/12 07:40:25;;;;;;;33.25;13.73;;;7.80;99.90;;;;;;5073248;28;20079;-85
2021/12/12 07:42:52;;;;;;;35.65;13.70;;;7.70;99.90;;;;;;5086244;28;20021;-81
2021/12/12 07:45:20;;;;;;;36.20;13.65;;;7.80;99.90;;;;;;5074464;28;20020;-85
2021/12/12 07:47:47;;;;;;;42.50;13.57;;;7.90;99.90;;;;;;5088827;28;20058;-84
2021/12/12 07:50:15;;;;;;;42.28;13.90;;;7.90;99.90;;;;;;5074702;28;20715;-84
2021/12/12 07:52:42;;;;;;;50.03;14.45;;;8.00;99.90;;;;;;5091915;28;20027;-85
2021/12/12 07:55:08;;;;;;;40.78;13.77;;;8.10;99.90;;;;;;5073824;28;20024;-84
2021/12/12 07:57:35;;;;;;;40.83;14.02;;;8.00;99.90;;;;;;5091662;28;20368;-84
2021/12/12 08:00:06;;;;;;;39.72;13.82;;;8.10;99.90;;;;;;5091658;28;20110;-84
2021/12/12 08:02:32;;;;;;;35.15;13.60;;;8.20;99.90;;;;;;5091696;28;20028;-84
2021/12/12 08:04:58;;;;;;;34.50;13.73;;;8.10;99.90;;;;;;5073424;28;20490;-84
2021/12/12 08:07:25;;;;;;;39.38;14.48;;;8.10;99.90;;;;;;5091662;28;20038;-84
2021/12/12 08:09:51;;;;;;;42.75;15.68;;;8.20;99.90;;;;;;5091444;28;20024;-84
2021/12/12 08:12:22;;;;;;;39.60;14.07;;;8.20;99.90;;;;;;5083751;28;20131;-81
2021/12/12 08:14:49;;;;;;;36.88;13.75;;;8.20;99.90;;;;;;5078788;28;20047;-81
2021/12/12 08:17:16;;;;;;;41.67;13.60;;;8.40;99.90;;;;;;5083682;28;20048;-81
2021/12/12 08:19:43;;;;;;;39.72;14.00;;;8.30;99.90;;;;;;5082976;28;21283;-82
2021/12/12 08:22:10;;;;;;;41.72;14.07;;;8.50;99.90;;;;;;5079591;28;20040;-81
2021/12/12 08:24:37;;;;;;;49.10;16.08;;;8.50;99.90;;;;;;5081604;28;20066;-81
2021/12/12 08:27:06;;;;;;;40.63;16.10;;;8.40;99.90;;;;;;5080922;28;20021;-81
2021/12/12 08:29:33;;;;;;;45.92;14.90;;;8.50;99.90;;;;;;5064309;28;20062;-81
2021/12/12 08:31:59;;;;;;;46.03;15.73;;;8.50;99.90;;;;;;5090944;28;20369;-81
2021/12/12 08:34:26;;;;;;;44.72;13.93;;;8.60;99.90;;;;;;5084423;28;20032;-81
2021/12/12 08:36:54;;;;;;;47.50;15.13;;;8.60;99.90;;;;;;5083263;28;20047;-81
2021/12/12 08:39:21;;;;;;;41.92;14.45;;;8.60;99.90;;;;;;5082913;28;20058;-81
2021/12/12 08:41:50;;;;;;;42.85;14.57;;;8.70;99.90;;;;;;5087784;28;20070;-81
2021/12/12 08:44:17;;;;;;;42.67;14.48;;;8.60;99.90;;;;;;5079914;28;20056;-81
2021/12/12 08:46:46;;;;;;;40.83;14.95;;;8.80;99.90;;;;;;5089660;28;20552;-81
2021/12/12 08:49:13;;;;;;;38.42;13.20;;;8.80;99.90;;;;;;5083179;28;20024;-81
2021/12/12 08:51:51;;;;;;;40.15;14.35;;;8.80;99.90;;;;;;5077429;28;20027;-82
2021/12/12 08:54:30;;;;;;;37.95;13.80;;;8.80;99.90;;;;;;5061376;28;20036;-82
2021/12/12 08:57:34;;;;;;;33.17;12.07;;;8.80;99.90;;;;;;5078604;28;20032;-83
2021/12/12 09:00:06;;;;;;;35.28;12.52;;;8.90;99.90;;;;;;5087391;28;20020;-82
2021/12/12 09:02:32;;;;;;;36.72;11.55;;;9.00;99.90;;;;;;5084948;28;20039;-82
2021/12/12 09:05:02;;;;;;;34.13;11.45;;;9.10;99.90;;;;;;5068872;28;21106;-83
2021/12/12 09:07:39;;;;;;;;;;;9.20;99.90;;;;;;5064514;28;20074;-83
2021/12/12 09:10:28;;;;;;;26.25;10.80;;;9.10;99.90;;;;;;5084215;28;19908;-82
2021/12/12 09:12:56;;;;;;;35.15;10.68;;;9.30;99.90;;;;;;5084535;28;20529;-82
2021/12/12 09:15:32;;;;;;;29.95;10.93;;;9.40;99.90;;;;;;5093279;28;20036;-82
2021/12/12 09:18:12;;;;;;;31.60;11.18;;;9.30;99.90;;;;;;5096289;28;20071;-82
2021/12/12 09:20:47;;;;;;;31.13;10.00;;;9.40;99.90;;;;;;5084978;28;20435;-83
2021/12/12 09:23:32;;;;;;;32.70;11.23;;;9.30;99.90;;;;;;5086827;28;20029;-82
2021/12/12 09:26:10;;;;;;;25.10;9.93;;;9.50;99.90;;;;;;5081744;28;20021;-82
2021/12/12 09:28:45;;;;;;;31.33;10.02;;;9.50;99.90;;;;;;5065842;28;20031;-81
2021/12/12 09:31:15;;;;;;;31.50;10.20;;;9.40;99.90;;;;;;5086869;28;20115;-82
2021/12/12 09:33:55;;;;;;;27.80;9.85;;;9.50;99.90;;;;;;5089005;28;20020;-83
2021/12/12 09:36:33;;;;;;;21.15;8.52;;;9.60;99.90;;;;;;5069963;28;20040;-82
2021/12/12 09:39:05;;;;;;;19.83;8.02;;;9.60;99.90;;;;;;5087946;28;20081;-83
2021/12/12 09:42:38;;;;;;;24.02;8.57;;;9.60;99.90;;;;;;5082697;28;20142;-83
2021/12/12 09:45:35;;;;;;;16.83;7.70;;;9.70;99.90;;;;;;4990121;28;20434;-82
2021/12/12 09:51:29;;;;;;;11.82;6.72;;;9.80;99.90;;;;;;5084826;28;20035;-82
2021/12/12 09:54:15;;;;;;;16.10;7.10;;;9.90;99.90;;;;;;5089032;28;20028;-83
2021/12/12 09:57:05;;;;;;;17.00;7.30;;;9.90;99.90;;;;;;5089712;28;20028;-83
2021/12/12 09:59:50;;;;;;;17.42;7.32;;;9.90;99.90;;;;;;5087136;28;20031;-81
2021/12/12 10:02:28;;;;;;;15.02;7.57;;;10.00;99.90;;;;;;5092353;28;20475;-82
2021/12/12 10:05:15;;;;;;;13.82;6.30;;;10.00;99.90;;;;;;5082966;28;20073;-81
2021/12/12 10:08:13;;;;;;;13.50;6.30;;;10.00;99.90;;;;;;5077270;28;20380;-81
2021/12/12 10:10:46;;;;;;;13.55;5.97;;;10.10;99.90;;;;;;5087187;28;20020;-81
2021/12/12 10:13:36;;;;;;;12.75;5.72;;;10.20;99.90;;;;;;5093633;28;20051;-81
2021/12/12 10:16:13;;;;;;;7.72;4.50;;;10.20;99.90;;;;;;5093950;28;20384;-81
2021/12/12 10:18:55;;;;;;;8.50;4.32;;;10.30;99.90;;;;;;5086916;28;20024;-81
2021/12/12 10:21:37;;;;;;;7.35;4.60;;;10.40;99.90;;;;;;5073950;28;20167;-82
2021/12/12 10:24:27;;;;;;;9.38;4.88;;;10.30;99.90;;;;;;5093638;28;20403;-81
2021/12/12 10:27:07;;;;;;;9.43;4.70;;;10.40;99.90;;;;;;5079284;28;20450;-81
2021/12/12 10:29:42;;;;;;;7.78;4.13;;;10.30;99.90;;;;;;5093275;28;20072;-81
2021/12/12 10:32:18;;;;;;;9.80;4.68;;;10.30;99.90;;;;;;5089279;28;20013;-80
2021/12/12 10:34:52;;;;;;;5.63;3.40;;;10.40;99.90;;;;;;5078429;28;20016;-81
2021/12/12 10:37:23;;;;;;;6.93;4.03;;;10.40;99.90;;;;;;5080485;28;20028;-81
2021/12/12 10:40:14;;;;;;;;;;;10.50;99.90;;;;;;5084337;28;20052;-81
2021/12/12 10:42:48;;;;;;;7.97;3.55;;;10.50;99.90;;;;;;5078931;28;20030;-81
2021/12/12 10:45:26;;;;;;;8.38;3.63;;;10.50;99.90;;;;;;5083176;28;20043;-81
2021/12/12 10:48:03;;;;;;;7.53;3.47;;;10.50;99.90;;;;;;5082402;28;20055;-81
2021/12/12 10:51:04;;;;;;;8.90;4.72;;;10.60;99.90;;;;;;5076916;28;20081;-81
2021/12/12 10:53:56;;;;;;;6.25;4.22;;;10.50;99.90;;;;;;5090327;28;20044;-81
2021/12/12 10:56:52;;;;;;;5.40;3.50;;;10.60;99.90;;;;;;5044785;28;20044;-81
2021/12/12 10:59:39;;;;;;;6.30;4.03;;;10.50;99.90;;;;;;5092831;28;20101;-81
2021/12/12 11:02:08;;;;;;;5.82;4.20;;;10.60;99.90;;;;;;5081932;28;20040;-81
2021/12/12 11:04:43;;;;;;;6.15;3.90;;;10.50;99.90;;;;;;5057316;28;20032;-80
2021/12/12 11:07:24;;;;;;;4.38;3.83;;;10.60;99.90;;;;;;5078568;28;20365;-81
2021/12/12 11:10:19;;;;;;;10.43;5.65;;;10.70;99.90;;;;;;5076573;28;20240;-81
2021/12/12 11:12:55;;;;;;;6.25;4.47;;;10.70;99.90;;;;;;5075653;28;20416;-81
2021/12/12 11:15:30;;;;;;;5.53;3.97;;;10.70;99.90;;;;;;5073034;28;20373;-81
2021/12/12 11:17:58;;;;;;;9.50;3.85;;;10.60;99.90;;;;;;5074995;28;20130;-81
2021/12/12 11:20:35;;;;;;;5.82;3.70;;;10.80;99.90;;;;;;5079989;28;20032;-81
2021/12/12 11:23:22;;;;;;;7.93;3.65;;;10.70;99.90;;;;;;5078243;28;20020;-82
2021/12/12 11:26:16;;;;;;;6.53;3.60;;;10.70;99.90;;;;;;5077007;28;20027;-81
2021/12/12 11:28:46;;;;;;;9.00;4.10;;;10.80;99.90;;;;;;5055189;28;20137;-81
2021/12/12 11:31:44;;;;;;;6.28;4.18;;;10.80;99.90;;;;;;5081087;28;20063;-81
2021/12/12 11:34:11;;;;;;;8.32;4.28;;;10.80;99.90;;;;;;5059299;28;20028;-81
2021/12/12 11:37:04;;;;;;;5.40;3.63;;;10.80;99.90;;;;;;5078487;28;20024;-81
2021/12/12 11:39:38;;;;;;;7.57;3.80;;;10.90;99.90;;;;;;5078047;28;20016;-81
2021/12/12 11:42:11;;;;;;;6.28;3.70;;;11.00;99.90;;;;;;5076225;28;20024;-82
2021/12/12 11:44:52;;;;;;;8.30;3.80;;;11.10;99.90;;;;;;5060620;28;20032;-81
2021/12/12 11:47:48;;;;;;;4.90;3.10;;;11.10;99.90;;;;;;5084007;28;20093;-81
2021/12/12 11:50:41;;;;;;;6.47;3.25;;;11.30;99.90;;;;;;5086245;28;20125;-81
2021/12/12 11:53:29;;;;;;;6.28;2.75;;;11.30;99.90;;;;;;5091166;28;20428;-81
2021/12/12 11:56:00;;;;;;;5.95;2.95;;;11.30;99.90;;;;;;5091555;28;20036;-82
2021/12/12 11:58:37;;;;;;;6.43;2.70;;;11.30;99.90;;;;;;5091384;28;20040;-82
2021/12/12 12:01:21;;;;;;;3.53;2.50;;;11.30;99.90;;;;;;5091815;28;20376;-82
2021/12/12 12:04:03;;;;;;;3.15;2.45;;;11.50;99.90;;;;;;5084261;28;20025;-81
2021/12/12 12:06:50;;;;;;;4.25;2.45;;;11.50;99.90;;;;;;5080889;28;20032;-82
2021/12/12 12:09:44;;;;;;;4.50;2.60;;;11.60;99.90;;;;;;5083963;28;20016;-81
2021/12/12 12:12:40;;;;;;;5.43;2.30;;;11.60;99.90;;;;;;5072695;28;20028;-81
2021/12/12 12:15:47;;;;;;;6.45;2.25;;;11.60;99.90;;;;;;5091203;28;20023;-81
2021/12/12 12:18:41;;;;;;;3.75;2.10;;;11.60;99.90;;;;;;5087784;28;20032;-82
2021/12/12 12:21:18;;;;;;;5.90;2.42;;;11.60;99.90;;;;;;5046713;28;20044;-82
2021/12/12 12:24:11;;;;;;;7.03;2.60;;;11.60;99.90;;;;;;5082290;28;20031;-82
2021/12/12 12:26:51;;;;;;;5.22;2.70;;;11.70;99.90;;;;;;5089003;28;20099;-81
2021/12/12 12:29:33;;;;;;;8.82;2.65;;;11.70;99.90;;;;;;5091338;28;20028;-81
2021/12/12 12:32:07;;;;;;;5.95;2.60;;;11.70;99.90;;;;;;5091273;28;20050;-81
2021/12/12 12:34:54;;;;;;;7.10;2.80;;;11.60;99.90;;;;;;5091093;28;20386;-81
2021/12/12 12:37:58;;;;;;;6.10;3.40;;;11.60;99.90;;;;;;5083495;28;20020;-81
2021/12/12 12:41:17;;;;;;;8.70;3.65;;;11.50;99.90;;;;;;5072826;28;20047;-81
2021/12/12 12:44:20;;;;;;;6.30;3.47;;;11.50;99.90;;;;;;5091492;28;20040;-81
2021/12/12 12:47:23;;;;;;;7.65;3.20;;;11.50;99.90;;;;;;5087545;28;20067;-82
2021/12/12 12:50:39;;;;;;;7.72;3.90;;;11.50;99.90;;;;;;5069446;28;20039;-81
2021/12/12 12:53:42;;;;;;;9.18;3.55;;;11.40;99.90;;;;;;5002083;28;20142;-81
2021/12/12 12:56:28;;;;;;;8.18;3.90;;;11.50;99.90;;;;;;5091444;28;20031;-81
2021/12/12 12:59:19;;;;;;;8.48;3.95;;;11.40;99.90;;;;;;5091458;28;20494;-82
2021/12/12 13:01:56;;;;;;;8.20;4.00;;;11.40;99.90;;;;;;5086171;28;20169;-81
2021/12/12 13:04:33;;;;;;;9.20;4.88;;;11.40;99.90;;;;;;5091272;28;20404;-81
2021/12/12 13:07:13;;;;;;;12.38;5.40;;;11.40;99.90;;;;;;5091070;28;20032;-81
2021/12/12 13:09:45;;;;;;;11.15;4.70;;;11.40;99.90;;;;;;5072920;28;20024;-81
2021/12/12 13:12:36;;;;;;;11.80;4.55;;;11.40;99.90;;;;;;5072973;28;20028;-81
2021/12/12 13:15:13;;;;;;;18.55;6.88;;;11.30;99.90;;;;;;5091356;28;20031;-82
2021/12/12 13:18:09;;;;;;;11.65;5.72;;;11.40;99.90;;;;;;5091148;28;20020;-82
2021/12/12 13:20:57;;;;;;;8.85;4.80;;;11.20;99.90;;;;;;5070537;28;20052;-82
2021/12/12 13:23:46;;;;;;;11.25;5.25;;;11.20;99.90;;;;;;5094705;28;20517;-82
2021/12/12 13:26:18;;;;;;;13.43;6.25;;;11.20;99.90;;;;;;5077193;28;20024;-81
2021/12/12 13:29:14;;;;;;;10.82;4.72;;;11.20;99.90;;;;;;5094994;28;20052;-81
2021/12/12 13:31:51;;;;;;;9.60;4.45;;;11.20;99.90;;;;;;5088338;28;20055;-82
2021/12/12 13:34:35;;;;;;;10.82;4.78;;;11.20;99.90;;;;;;5076486;28;20031;-81
2021/12/12 13:37:27;;;;;;;9.38;4.35;;;11.20;99.90;;;;;;5095003;28;20554;-81